Terminal Aerodrome Forecast
Issued by NWS

Home | Current Version | Previous Version | Text Only | Print | Product List | Glossary On
Versions: 1 2 3 4 5 6 7 8 9 10 11 12 13
000
FTUS43 KGRB 302227 AAA
TAFMTW
TAF AMD
KMTW 302227Z 3022/3118 03010G20KT P6SM SCT022 BKN100
     FM310000 03013KT P6SM SCT035 BKN250=

USA.gov is the U.S. government's official web portal to all federal, state and local government web resources and services.